Sagar Sampada — VWXS — position and weather

sailwx.info

Track history (hours):
 
Tides and Currents Weather Stations Pressure Air Temp Water Temp Dewpoint Dewpoint Depression Visibility Wind Speed Wind Dir Waves Ship Positions

Oceanographic research ship Sagar Sampada (India)

Detailed information on ship capabilities available from University of Delaware's Ocean Information Center.

Last reported at 2020-Jul-07 03:10 UTC. Time now 2020-Jul-08 11:03 UTC.
Position N 10°00' E 076°18'.

Type: Other ship. MMSI: 419323000.

Wind from 050 at 4 knots

Air temperature 20.8 ° C

Date/timePositionNaut miles runAvg speedWind from/ knotsBaromVisibWave heightAir tempDewpointWater temp
2020-Jul-07 03:10N 10°00' E 076°18'0 0.0 050 / 4 20.8
2020-Jul-07 00:10N 10°00' E 076°18'0 0.0 290 / 8
2020-Jul-06 21:10N 10°00' E 076°18'0 0.0 240
2020-Jul-06 18:10N 10°00' E 076°18'0 0.0 100 / 2
2020-Jul-06 15:10N 10°00' E 076°18'0 0.0 080 / 4
2020-Jul-06 12:10N 10°00' E 076°18'0 0.0 040 / 2
2020-Jul-06 09:10N 10°00' E 076°18'0 0.0 300 / 2
2020-Jul-06 06:10N 10°00' E 076°18'0 0.0 210 / 2
2020-Jul-06 03:10N 10°00' E 076°18'0 0.0 050 / 4
2020-Jul-06 00:10N 10°00' E 076°18'0 0.0 110 / 2
2020-Jul-05 21:10N 10°00' E 076°18'0 0.0 170 / 2
2020-Jul-05 18:10N 10°00' E 076°18'0 0.0 190 / 2
2020-Jul-05 15:10N 10°00' E 076°18'0 0.0 200 / 2
2020-Jul-05 09:10N 10°00' E 076°18'0 0.0 210 / 4
2020-Jul-05 06:10N 10°00' E 076°18'0 0.0 220 / 2
2020-Jul-05 00:10N 10°00' E 076°18'0 0.0 100 / 2
2020-Jul-04 21:10N 10°00' E 076°18'0 0.0 120 / 2
2020-Jul-04 18:10N 10°00' E 076°18'0 0.0 140 / 2
2020-Jul-04 09:10N 10°00' E 076°18'0 0.0 210 / 4
2020-Jul-04 06:10N 10°00' E 076°18'0 0.0 130 / 4
2020-Jul-04 03:10N 10°00' E 076°18'0 0.0 090 / 4
2020-Jul-04 00:10N 10°00' E 076°18'0 0.0 080 / 2
2020-Jul-03 21:10N 10°00' E 076°18'0 0.0 060 / 2
2020-Jul-03 18:10N 10°00' E 076°18'0 0.0 010 / 2
2020-Jul-03 15:10N 10°00' E 076°18'0 0.0 040 / 4
2020-Jul-03 11:40N 10°00' E 076°18'0 0.0 090 / 4
2020-Jul-03 09:10N 10°00' E 076°18'0 0.0 150 / 6
2020-Jul-03 06:10N 10°00' E 076°18'0 0.0 100
2020-Jul-03 03:10N 10°00' E 076°18'0 0.0 250 / 2
2020-Jul-03 00:10N 10°00' E 076°18'0 0.0 040 / 21007.4 21.8
2020-Jul-02 21:10N 10°00' E 076°18'0 0.0 060 / 21007.4 22.1
2020-Jul-02 18:10N 10°00' E 076°18'0 0.0 260 / 8
2020-Jul-02 14:40N 10°00' E 076°18'0 0.0 040 / 2
2020-Jul-02 11:40N 10°00' E 076°18'0 0.0 290 / 4
2020-Jul-02 09:10N 10°00' E 076°18'0 0.0 210 / 8
2020-Jul-02 06:10N 10°00' E 076°18'0 0.0 290 / 2
2020-Jul-02 03:10N 10°00' E 076°18'0 0.0 040 / 4
2020-Jul-02 00:10N 10°00' E 076°18'0 0.0 130
2020-Jul-01 21:10N 10°00' E 076°18'0 0.0 040
2020-Jul-01 17:40N 10°00' E 076°18'0 0.0 240 / 8
2020-Jul-01 15:10N 10°00' E 076°18'0 0.0 220 / 4
2020-Jul-01 12:10N 10°00' E 076°18'0 0.0 240 / 8
2020-Jul-01 09:10N 10°00' E 076°18'0 0.0 240 / 8
2020-Jul-01 06:10N 10°00' E 076°18'0 0.0 190 / 6
2020-Jul-01 03:10N 10°00' E 076°18'0 0.0 060 / 2
2020-Jul-01 00:10N 10°00' E 076°18'0 0.0 030
2020-Jun-30 20:40N 10°00' E 076°18'0 0.0 060 / 2
2020-Jun-30 14:40N 10°00' E 076°18'0 0.0 210 / 4
2020-Jun-30 12:10N 10°00' E 076°18'0 0.0 250 / 6
2020-Jun-30 09:10N 10°00' E 076°18'0 0.0 250 / 81007.3 30.1
2020-Jun-30 06:10N 10°00' E 076°18'0 0.0 260 / 4
2020-Jun-30 02:40N 10°00' E 076°18'0 0.0 330 / 6
2020-Jun-29 17:40N 10°00' E 076°18'0 0.0 080 / 2
2020-Jun-29 15:10N 10°00' E 076°18'0 0.0 200 / 6
2020-Jun-29 12:10N 10°00' E 076°18'0 0.0 230 / 6
2020-Jun-29 09:10N 10°00' E 076°18'0 0.0 230 / 8
2020-Jun-29 05:40N 10°00' E 076°18'0 0.0 200 / 6
2020-Jun-29 02:40N 10°00' E 076°18'0 0.0 060 / 2
2020-Jun-29 00:10N 10°00' E 076°18'0 0.0 120
2020-Jun-28 17:40N 10°00' E 076°18'0 0.0 060
2020-Jun-28 15:10N 10°00' E 076°18'0 0.0 360
2020-Jun-28 12:10N 10°00' E 076°18'0 0.0 250 / 6
2020-Jun-28 09:10N 10°00' E 076°18'0 0.0 270 / 2
2020-Jun-28 06:10N 10°00' E 076°18'0 0.0 200 / 17
2020-Jun-28 03:10N 10°00' E 076°18'0 0.0 040 / 2
2020-Jun-28 00:10N 10°00' E 076°18'0 0.0 080 / 2
2020-Jun-27 21:10N 10°00' E 076°18'0 0.0 060 / 2
2020-Jun-27 18:10N 10°00' E 076°18'0 0.0 040 / 2
2020-Jun-27 15:10N 10°00' E 076°18'0 0.0 040 / 4
2020-Jun-27 12:10N 10°00' E 076°18'0 0.0 240 / 6
2020-Jun-27 09:10N 10°00' E 076°18'0 0.0 230 / 10
2020-Jun-27 06:10N 10°00' E 076°18'0 0.0 340 / 4
2020-Jun-27 03:10N 10°00' E 076°18'   080 / 2
Track history (hours):
 
Tides and Currents Weather Stations Pressure Air Temp Water Temp Dewpoint Dewpoint Depression Visibility Wind Speed Wind Dir Waves Ship Positions

Oceanographic research ship Sagar Sampada (India)

Detailed information on ship capabilities available from University of Delaware's Ocean Information Center.

Last reported at 2020-Jul-07 03:10 UTC. Time now 2020-Jul-08 11:03 UTC.
Position N 10°00' E 076°18'.

Type: Other ship. MMSI: 419323000.

Wind from 050 at 4 knots

Air temperature 20.8 ° C

Date/timePositionNaut miles runAvg speedWind from/ knotsBaromVisibWave heightAir tempDewpointWater temp
2020-Jul-07 03:10N 10°00' E 076°18'0 0.0 050 / 4 20.8
2020-Jul-07 00:10N 10°00' E 076°18'0 0.0 290 / 8
2020-Jul-06 21:10N 10°00' E 076°18'0 0.0 240
2020-Jul-06 18:10N 10°00' E 076°18'0 0.0 100 / 2
2020-Jul-06 15:10N 10°00' E 076°18'0 0.0 080 / 4
2020-Jul-06 12:10N 10°00' E 076°18'0 0.0 040 / 2
2020-Jul-06 09:10N 10°00' E 076°18'0 0.0 300 / 2
2020-Jul-06 06:10N 10°00' E 076°18'0 0.0 210 / 2
2020-Jul-06 03:10N 10°00' E 076°18'0 0.0 050 / 4
2020-Jul-06 00:10N 10°00' E 076°18'0 0.0 110 / 2
2020-Jul-05 21:10N 10°00' E 076°18'0 0.0 170 / 2
2020-Jul-05 18:10N 10°00' E 076°18'0 0.0 190 / 2
2020-Jul-05 15:10N 10°00' E 076°18'0 0.0 200 / 2
2020-Jul-05 09:10N 10°00' E 076°18'0 0.0 210 / 4
2020-Jul-05 06:10N 10°00' E 076°18'0 0.0 220 / 2
2020-Jul-05 00:10N 10°00' E 076°18'0 0.0 100 / 2
2020-Jul-04 21:10N 10°00' E 076°18'0 0.0 120 / 2
2020-Jul-04 18:10N 10°00' E 076°18'0 0.0 140 / 2
2020-Jul-04 09:10N 10°00' E 076°18'0 0.0 210 / 4
2020-Jul-04 06:10N 10°00' E 076°18'0 0.0 130 / 4
2020-Jul-04 03:10N 10°00' E 076°18'0 0.0 090 / 4
2020-Jul-04 00:10N 10°00' E 076°18'0 0.0 080 / 2
2020-Jul-03 21:10N 10°00' E 076°18'0 0.0 060 / 2
2020-Jul-03 18:10N 10°00' E 076°18'0 0.0 010 / 2
2020-Jul-03 15:10N 10°00' E 076°18'0 0.0 040 / 4
2020-Jul-03 11:40N 10°00' E 076°18'0 0.0 090 / 4
2020-Jul-03 09:10N 10°00' E 076°18'0 0.0 150 / 6
2020-Jul-03 06:10N 10°00' E 076°18'0 0.0 100
2020-Jul-03 03:10N 10°00' E 076°18'0 0.0 250 / 2
2020-Jul-03 00:10N 10°00' E 076°18'0 0.0 040 / 21007.4 21.8
2020-Jul-02 21:10N 10°00' E 076°18'0 0.0 060 / 21007.4 22.1
2020-Jul-02 18:10N 10°00' E 076°18'0 0.0 260 / 8
2020-Jul-02 14:40N 10°00' E 076°18'0 0.0 040 / 2
2020-Jul-02 11:40N 10°00' E 076°18'0 0.0 290 / 4
2020-Jul-02 09:10N 10°00' E 076°18'0 0.0 210 / 8
2020-Jul-02 06:10N 10°00' E 076°18'0 0.0 290 / 2
2020-Jul-02 03:10N 10°00' E 076°18'0 0.0 040 / 4
2020-Jul-02 00:10N 10°00' E 076°18'0 0.0 130
2020-Jul-01 21:10N 10°00' E 076°18'0 0.0 040
2020-Jul-01 17:40N 10°00' E 076°18'0 0.0 240 / 8
2020-Jul-01 15:10N 10°00' E 076°18'0 0.0 220 / 4
2020-Jul-01 12:10N 10°00' E 076°18'0 0.0 240 / 8
2020-Jul-01 09:10N 10°00' E 076°18'0 0.0 240 / 8
2020-Jul-01 06:10N 10°00' E 076°18'0 0.0 190 / 6
2020-Jul-01 03:10N 10°00' E 076°18'0 0.0 060 / 2
2020-Jul-01 00:10N 10°00' E 076°18'0 0.0 030
2020-Jun-30 20:40N 10°00' E 076°18'0 0.0 060 / 2
2020-Jun-30 14:40N 10°00' E 076°18'0 0.0 210 / 4
2020-Jun-30 12:10N 10°00' E 076°18'0 0.0 250 / 6
2020-Jun-30 09:10N 10°00' E 076°18'0 0.0 250 / 81007.3 30.1
2020-Jun-30 06:10N 10°00' E 076°18'0 0.0 260 / 4
2020-Jun-30 02:40N 10°00' E 076°18'0 0.0 330 / 6
2020-Jun-29 17:40N 10°00' E 076°18'0 0.0 080 / 2
2020-Jun-29 15:10N 10°00' E 076°18'0 0.0 200 / 6
2020-Jun-29 12:10N 10°00' E 076°18'0 0.0 230 / 6
2020-Jun-29 09:10N 10°00' E 076°18'0 0.0 230 / 8
2020-Jun-29 05:40N 10°00' E 076°18'0 0.0 200 / 6
2020-Jun-29 02:40N 10°00' E 076°18'0 0.0 060 / 2
2020-Jun-29 00:10N 10°00' E 076°18'0 0.0 120
2020-Jun-28 17:40N 10°00' E 076°18'0 0.0 060
2020-Jun-28 15:10N 10°00' E 076°18'0 0.0 360
2020-Jun-28 12:10N 10°00' E 076°18'0 0.0 250 / 6
2020-Jun-28 09:10N 10°00' E 076°18'0 0.0 270 / 2
2020-Jun-28 06:10N 10°00' E 076°18'0 0.0 200 / 17
2020-Jun-28 03:10N 10°00' E 076°18'0 0.0 040 / 2
2020-Jun-28 00:10N 10°00' E 076°18'0 0.0 080 / 2
2020-Jun-27 21:10N 10°00' E 076°18'0 0.0 060 / 2
2020-Jun-27 18:10N 10°00' E 076°18'0 0.0 040 / 2
2020-Jun-27 15:10N 10°00' E 076°18'0 0.0 040 / 4
2020-Jun-27 12:10N 10°00' E 076°18'0 0.0 240 / 6
2020-Jun-27 09:10N 10°00' E 076°18'0 0.0 230 / 10
2020-Jun-27 06:10N 10°00' E 076°18'0 0.0 340 / 4
2020-Jun-27 03:10N 10°00' E 076°18'   080 / 2

Dump ship's entire track history